createdAt,value
2023-05-05T00:01:09.410Z,6.00
2023-05-05T00:03:36.407Z,5.93
2023-05-05T00:06:03.477Z,5.63
2023-05-05T00:08:30.286Z,7.43
2023-05-05T00:10:57.687Z,5.95
2023-05-05T00:13:24.712Z,5.93
2023-05-05T00:15:53.636Z,5.05
2023-05-05T00:18:20.644Z,5.28
2023-05-05T00:20:47.626Z,4.90
2023-05-05T00:23:15.339Z,5.47
2023-05-05T00:25:42.105Z,4.80
2023-05-05T00:28:08.875Z,5.85
2023-05-05T00:30:37.286Z,5.53
2023-05-05T00:33:04.163Z,5.60
2023-05-05T00:35:30.923Z,5.53
2023-05-05T00:37:58.146Z,4.60
2023-05-05T00:40:25.352Z,4.85
2023-05-05T00:42:52.279Z,4.45
2023-05-05T00:45:19.810Z,5.13
2023-05-05T00:47:49.294Z,5.07
2023-05-05T00:50:27.033Z,4.80
2023-05-05T00:52:59.158Z,5.15
2023-05-05T00:55:26.126Z,5.10
2023-05-05T00:57:53.415Z,4.63
2023-05-05T01:00:20.200Z,5.55
2023-05-05T01:02:46.914Z,5.18
2023-05-05T01:05:14.398Z,5.22
2023-05-05T01:07:43.913Z,4.60
2023-05-05T01:10:20.919Z,5.55
2023-05-05T01:13:24.738Z,4.55
2023-05-05T01:16:04.543Z,4.82
2023-05-05T01:19:15.821Z,4.72
2023-05-05T01:21:48.506Z,5.00
2023-05-05T01:24:23.847Z,5.50
2023-05-05T01:27:04.678Z,5.45
2023-05-05T01:30:10.723Z,5.25
2023-05-05T01:32:44.670Z,5.10
2023-05-05T01:35:34.528Z,5.65
2023-05-05T01:38:15.694Z,5.28
2023-05-05T01:40:47.167Z,4.82
2023-05-05T01:45:42.772Z,5.38
2023-05-05T01:48:09.731Z,5.07
2023-05-05T01:50:37.015Z,4.88
2023-05-05T01:53:04.341Z,4.75
2023-05-05T01:55:32.186Z,4.80
2023-05-05T01:57:59.546Z,5.88
2023-05-05T02:00:27.070Z,4.40
2023-05-05T02:02:55.053Z,5.15
2023-05-05T02:05:22.951Z,5.22
2023-05-05T02:07:50.975Z,5.05
2023-05-05T02:10:17.991Z,5.18
2023-05-05T02:12:45.557Z,5.05
2023-05-05T02:15:13.415Z,5.57
2023-05-05T02:17:43.739Z,4.80
2023-05-05T02:20:14.785Z,4.82
2023-05-05T02:22:41.552Z,5.25
2023-05-05T02:25:09.510Z,4.53
2023-05-05T02:27:36.607Z,3.97
2023-05-05T02:30:07.034Z,5.82
2023-05-05T02:32:37.948Z,4.95
2023-05-05T02:35:12.390Z,5.03
2023-05-05T02:37:44.323Z,5.10
2023-05-05T02:40:11.740Z,5.28
2023-05-05T02:42:43.385Z,5.45
2023-05-05T02:45:16.583Z,5.40
2023-05-05T02:47:46.391Z,5.53
2023-05-05T02:50:13.525Z,5.60
2023-05-05T02:52:46.643Z,5.80
2023-05-05T02:55:14.163Z,5.38
2023-05-05T02:58:12.596Z,5.03
2023-05-05T03:01:34.876Z,5.65
2023-05-05T03:04:30.045Z,6.15
2023-05-05T03:07:00.121Z,4.55
2023-05-05T03:09:46.809Z,5.13
2023-05-05T03:12:19.559Z,5.88
2023-05-05T03:14:58.508Z,4.97
2023-05-05T03:17:28.081Z,4.60
2023-05-05T03:19:55.027Z,5.90
2023-05-05T03:22:22.196Z,5.97
2023-05-05T03:24:51.896Z,5.35
2023-05-05T03:27:22.574Z,5.63
2023-05-05T03:29:49.181Z,5.32
2023-05-05T03:32:16.387Z,5.95
2023-05-05T03:34:43.850Z,5.50
2023-05-05T03:37:10.986Z,5.22
2023-05-05T03:39:39.582Z,5.00
2023-05-05T03:42:07.380Z,5.53
2023-05-05T03:44:35.277Z,4.95
2023-05-05T03:47:01.919Z,4.75
2023-05-05T03:49:30.864Z,5.00
2023-05-05T03:51:58.053Z,5.55
2023-05-05T03:54:24.799Z,4.70
2023-05-05T03:56:51.971Z,5.07
2023-05-05T03:59:18.616Z,5.32
2023-05-05T04:01:46.671Z,4.05
2023-05-05T04:04:13.532Z,5.10
2023-05-05T04:06:40.943Z,4.63
2023-05-05T04:09:08.372Z,4.60
2023-05-05T04:11:35.788Z,6.18
2023-05-05T04:14:02.488Z,5.03
2023-05-05T04:16:31.096Z,5.47
2023-05-05T04:18:58.822Z,4.97
2023-05-05T04:21:25.516Z,4.90
2023-05-05T04:23:52.862Z,5.05
2023-05-05T04:26:21.061Z,4.22
2023-05-05T04:28:48.615Z,5.15
2023-05-05T04:31:16.870Z,4.65
2023-05-05T04:33:44.765Z,4.28
2023-05-05T04:36:12.551Z,4.45
2023-05-05T04:38:39.348Z,4.45
2023-05-05T04:41:06.544Z,5.32
2023-05-05T04:43:34.376Z,5.00
2023-05-05T04:46:01.198Z,4.90
2023-05-05T04:48:31.009Z,5.35
2023-05-05T04:50:57.714Z,4.95
2023-05-05T04:53:24.876Z,4.90
2023-05-05T04:55:51.523Z,5.18
2023-05-05T04:58:18.219Z,4.82
2023-05-05T05:00:45.448Z,5.65
2023-05-05T05:03:12.293Z,4.75
2023-05-05T05:05:39.017Z,5.25
2023-05-05T05:08:05.979Z,4.32
2023-05-05T05:10:32.775Z,5.55
2023-05-05T05:12:59.614Z,4.45
2023-05-05T05:15:26.306Z,4.88
2023-05-05T05:17:53.616Z,4.57
2023-05-05T05:20:20.381Z,4.88
2023-05-05T05:22:47.255Z,5.35
2023-05-05T05:25:18.044Z,7.63
2023-05-05T05:27:50.107Z,5.30
2023-05-05T05:30:22.719Z,4.93
2023-05-05T05:32:49.993Z,4.88
2023-05-05T05:35:16.963Z,3.90
2023-05-05T05:37:44.196Z,4.80
2023-05-05T05:40:11.136Z,3.47
2023-05-05T05:42:40.023Z,4.05
2023-05-05T05:45:07.846Z,6.03
2023-05-05T05:47:34.758Z,6.25
2023-05-05T05:50:01.533Z,5.93
2023-05-05T05:52:28.469Z,4.97
2023-05-05T05:54:55.265Z,3.97
2023-05-05T05:57:23.749Z,5.30
2023-05-05T05:59:51.257Z,4.00
2023-05-05T06:02:19.101Z,4.13
2023-05-05T06:04:47.120Z,3.95
2023-05-05T06:07:14.233Z,3.78
2023-05-05T06:09:41.479Z,3.72
2023-05-05T06:12:08.234Z,3.92
2023-05-05T06:14:35.276Z,4.22
2023-05-05T06:17:01.970Z,4.30
2023-05-05T06:19:30.627Z,4.25
2023-05-05T06:21:57.917Z,4.55
2023-05-05T06:24:24.683Z,4.85
2023-05-05T06:26:51.863Z,3.90
2023-05-05T06:29:18.559Z,4.07
2023-05-05T06:31:45.296Z,4.20
2023-05-05T06:34:12.219Z,3.85
2023-05-05T06:36:39.177Z,3.83
2023-05-05T06:39:06.358Z,4.47
2023-05-05T06:41:32.970Z,3.80
2023-05-05T06:43:59.726Z,3.72
2023-05-05T06:46:26.450Z,4.20
2023-05-05T06:48:53.454Z,3.85
2023-05-05T06:51:20.328Z,4.03
2023-05-05T06:53:46.952Z,4.45
2023-05-05T06:56:13.564Z,4.25
2023-05-05T06:58:41.228Z,3.80
2023-05-05T07:01:08.001Z,4.05
2023-05-05T07:03:34.738Z,4.20
2023-05-05T07:06:01.355Z,3.55
2023-05-05T07:08:28.058Z,4.20
2023-05-05T07:10:54.683Z,4.15
2023-05-05T07:13:21.347Z,4.00
2023-05-05T07:15:47.991Z,3.92
2023-05-05T07:18:17.549Z,4.38
2023-05-05T07:20:44.560Z,3.90
2023-05-05T07:23:11.313Z,4.45
2023-05-05T07:25:38.031Z,3.58
2023-05-05T07:28:04.872Z,4.72
2023-05-05T07:30:31.870Z,4.85
2023-05-05T07:32:58.520Z,4.70
2023-05-05T07:35:25.381Z,4.72
2023-05-05T07:37:52.082Z,4.35
2023-05-05T07:40:18.699Z,4.18
2023-05-05T07:42:47.369Z,4.32
2023-05-05T07:45:13.988Z,3.75
2023-05-05T07:47:40.825Z,3.67
2023-05-05T07:50:08.472Z,3.80
2023-05-05T07:52:46.845Z,3.83
2023-05-05T07:55:16.587Z,4.53
2023-05-05T07:57:43.226Z,3.58
2023-05-05T08:00:11.031Z,4.70
2023-05-05T08:02:41.494Z,5.40
2023-05-05T08:05:08.619Z,5.38
2023-05-05T08:07:38.181Z,5.10
2023-05-05T08:10:05.113Z,5.03
2023-05-05T08:12:31.825Z,5.00
2023-05-05T08:14:58.478Z,4.72
2023-05-05T08:17:27.105Z,4.90
2023-05-05T08:19:53.913Z,4.65
2023-05-05T08:22:21.775Z,4.13
2023-05-05T08:24:48.440Z,4.07
2023-05-05T08:27:15.132Z,4.68
2023-05-05T08:29:41.756Z,4.38
2023-05-05T08:32:08.410Z,5.72
2023-05-05T08:34:35.068Z,5.90
2023-05-05T08:37:01.730Z,5.60
2023-05-05T08:39:28.578Z,5.70
2023-05-05T08:41:55.438Z,6.28
2023-05-05T08:44:22.064Z,5.13
2023-05-05T08:46:49.352Z,5.32
2023-05-05T08:49:16.542Z,5.43
2023-05-05T08:51:44.319Z,4.43
2023-05-05T08:54:15.712Z,5.00
2023-05-05T08:56:42.927Z,4.15
2023-05-05T08:59:13.574Z,4.88
2023-05-05T09:01:41.975Z,6.50
2023-05-05T09:04:09.751Z,4.90
2023-05-05T09:06:37.294Z,4.50
2023-05-05T09:09:04.031Z,5.20
2023-05-05T09:11:31.262Z,6.18
2023-05-05T09:13:57.923Z,6.05
2023-05-05T09:16:24.724Z,5.75
2023-05-05T09:19:01.085Z,6.40
2023-05-05T09:21:28.064Z,5.38
2023-05-05T09:24:08.462Z,5.95
2023-05-05T09:26:42.155Z,4.95
2023-05-05T09:29:09.002Z,3.65
2023-05-05T09:31:36.801Z,3.05
2023-05-05T09:34:14.309Z,3.78
2023-05-05T09:36:44.833Z,4.22
2023-05-05T09:39:11.620Z,3.55
2023-05-05T09:41:49.931Z,4.38
2023-05-05T09:44:16.709Z,2.90
2023-05-05T09:46:51.206Z,2.65
2023-05-05T09:49:26.683Z,2.80
2023-05-05T09:51:54.415Z,3.00
2023-05-05T09:54:28.472Z,2.33
2023-05-05T09:56:56.290Z,2.25
2023-05-05T09:59:23.366Z,2.65
2023-05-05T10:01:51.365Z,2.70
2023-05-05T10:04:31.428Z,2.35
2023-05-05T10:06:58.516Z,3.65
2023-05-05T10:09:26.770Z,2.60
2023-05-05T10:11:53.890Z,2.38
2023-05-05T10:14:22.382Z,2.45
2023-05-05T10:16:51.162Z,2.58
2023-05-05T10:19:19.463Z,2.83
2023-05-05T10:21:51.296Z,2.92
2023-05-05T10:24:27.203Z,2.22
2023-05-05T10:26:56.677Z,2.75
2023-05-05T10:29:31.593Z,2.47
2023-05-05T10:32:24.435Z,2.50
2023-05-05T10:35:03.908Z,2.60
2023-05-05T10:37:30.707Z,2.67
2023-05-05T10:40:00.190Z,3.03
2023-05-05T10:42:27.995Z,2.67
2023-05-05T10:44:54.716Z,2.40
2023-05-05T10:47:22.540Z,2.80
2023-05-05T10:49:56.680Z,2.47
2023-05-05T10:52:36.047Z,2.97
2023-05-05T10:55:09.536Z,2.38
2023-05-05T10:57:39.819Z,2.53
2023-05-05T11:00:08.789Z,2.17
2023-05-05T11:02:36.208Z,1.92
2023-05-05T11:05:17.965Z,2.42
2023-05-05T11:07:46.081Z,2.35
2023-05-05T11:10:14.527Z,2.75
2023-05-05T11:13:03.030Z,2.38
2023-05-05T11:15:30.057Z,2.30
2023-05-05T11:18:03.211Z,2.50
2023-05-05T11:20:41.089Z,2.97
2023-05-05T11:23:08.202Z,2.42
2023-05-05T11:25:35.106Z,2.42
2023-05-05T11:28:05.908Z,2.38
2023-05-05T11:30:32.885Z,2.60
2023-05-05T11:33:31.163Z,2.08
2023-05-05T11:35:58.223Z,2.20
2023-05-05T11:38:40.056Z,2.30
2023-05-05T11:41:22.490Z,2.80
2023-05-05T11:43:49.123Z,2.42
2023-05-05T11:46:17.013Z,2.20
2023-05-05T11:48:47.919Z,2.47
2023-05-05T11:51:16.147Z,2.78
2023-05-05T11:53:47.200Z,2.33
2023-05-05T11:58:49.390Z,2.17
2023-05-05T12:01:16.141Z,2.72
2023-05-05T12:03:45.386Z,2.15
2023-05-05T12:06:13.038Z,2.17
2023-05-05T12:08:40.612Z,2.13
2023-05-05T12:11:10.261Z,2.63
2023-05-05T12:13:37.039Z,2.67
2023-05-05T12:16:14.398Z,2.50
2023-05-05T12:18:41.569Z,2.45
2023-05-05T12:21:17.658Z,2.45
2023-05-05T12:23:44.375Z,2.45
2023-05-05T12:26:43.354Z,2.30
2023-05-05T12:29:09.964Z,2.25
2023-05-05T12:31:41.363Z,2.72
2023-05-05T12:34:11.672Z,2.25
2023-05-05T12:36:38.849Z,2.13
2023-05-05T12:39:05.603Z,2.42
2023-05-05T12:41:32.636Z,2.50
2023-05-05T12:44:00.067Z,2.42
2023-05-05T12:46:29.594Z,2.50
2023-05-05T12:49:01.475Z,2.70
2023-05-05T12:51:28.221Z,2.03
2023-05-05T12:54:09.774Z,2.13
2023-05-05T12:56:40.732Z,2.20
2023-05-05T12:59:08.994Z,2.22
2023-05-05T13:01:36.784Z,2.10
2023-05-05T13:04:12.829Z,2.50
2023-05-05T13:06:40.782Z,2.20
2023-05-05T13:09:08.113Z,2.78
2023-05-05T13:11:38.921Z,2.00
2023-05-05T13:14:06.959Z,2.47
2023-05-05T13:16:34.156Z,2.33
2023-05-05T13:19:00.958Z,2.28
2023-05-05T13:21:28.069Z,2.95
2023-05-05T13:23:59.046Z,2.13
2023-05-05T13:26:31.723Z,2.05
2023-05-05T13:28:58.391Z,1.98
2023-05-05T13:31:25.039Z,1.70
2023-05-05T13:33:51.800Z,2.65
2023-05-05T13:36:18.428Z,2.25
2023-05-05T13:38:45.505Z,2.35
2023-05-05T13:41:12.343Z,1.90
2023-05-05T13:43:39.129Z,2.05
2023-05-05T13:46:22.221Z,1.85
2023-05-05T13:48:49.093Z,2.60
2023-05-05T13:51:16.434Z,2.60
2023-05-05T13:53:46.609Z,2.40
2023-05-05T13:56:13.942Z,2.15
2023-05-05T13:58:40.999Z,2.10
2023-05-05T14:01:07.710Z,2.33
2023-05-05T14:03:34.570Z,2.80
2023-05-05T14:06:01.270Z,2.47
2023-05-05T14:08:28.566Z,2.10
2023-05-05T14:10:55.267Z,2.47
2023-05-05T14:13:21.950Z,2.55
2023-05-05T14:15:50.635Z,2.55
2023-05-05T14:18:17.369Z,2.28
2023-05-05T14:20:44.001Z,2.10
2023-05-05T14:23:10.659Z,2.40
2023-05-05T14:25:37.406Z,2.50
2023-05-05T14:28:04.334Z,2.42
2023-05-05T14:30:31.096Z,2.50
2023-05-05T14:32:58.044Z,2.45
2023-05-05T14:35:24.767Z,3.13
2023-05-05T14:37:51.444Z,2.17
2023-05-05T14:40:18.113Z,2.33
2023-05-05T14:42:44.802Z,2.00
2023-05-05T14:45:11.697Z,2.50
2023-05-05T14:47:38.392Z,2.25
2023-05-05T14:50:05.568Z,2.33
2023-05-05T14:52:32.167Z,2.33
2023-05-05T14:54:58.880Z,2.47
2023-05-05T14:57:25.553Z,1.95
2023-05-05T14:59:53.075Z,2.60
2023-05-05T15:02:19.750Z,2.60
2023-05-05T15:04:48.528Z,2.55
2023-05-05T15:07:16.633Z,2.22
2023-05-05T15:09:43.527Z,2.67
2023-05-05T15:12:10.215Z,2.10
2023-05-05T15:14:38.166Z,2.95
2023-05-05T15:17:05.393Z,2.30
2023-05-05T15:19:32.201Z,2.25
2023-05-05T15:21:59.212Z,2.67
2023-05-05T15:24:26.360Z,2.88
2023-05-05T15:26:53.203Z,2.75
2023-05-05T15:34:10.288Z,2.42
2023-05-05T15:36:36.836Z,2.17
2023-05-05T15:39:03.521Z,2.55
2023-05-05T15:41:30.176Z,3.53
2023-05-05T15:43:56.981Z,2.80
2023-05-05T15:46:23.703Z,2.58
2023-05-05T15:48:50.306Z,2.90
2023-05-05T15:51:16.932Z,4.25
2023-05-05T15:53:43.652Z,3.67
2023-05-05T15:56:11.695Z,3.58
2023-05-05T15:58:38.314Z,3.15
2023-05-05T16:01:04.929Z,2.30
2023-05-05T16:03:31.866Z,2.88
2023-05-05T16:05:58.589Z,2.88
2023-05-05T16:08:25.204Z,2.92
2023-05-05T16:10:52.571Z,3.78
2023-05-05T16:13:19.305Z,2.70
2023-05-05T16:15:46.269Z,2.97
2023-05-05T16:18:13.013Z,3.15
2023-05-05T16:20:39.623Z,3.58
2023-05-05T16:23:06.802Z,3.60
2023-05-05T16:25:33.368Z,3.35
2023-05-05T16:28:01.582Z,4.10
2023-05-05T16:30:29.184Z,3.88
2023-05-05T16:32:55.830Z,3.10
2023-05-05T16:35:23.040Z,2.80
2023-05-05T16:37:49.602Z,2.50
2023-05-05T16:40:16.185Z,3.42
2023-05-05T16:42:44.471Z,3.63
2023-05-05T16:45:11.614Z,3.25
2023-05-05T16:47:38.444Z,2.65
2023-05-05T16:50:05.807Z,2.40
2023-05-05T16:52:32.659Z,4.57
2023-05-05T16:54:59.231Z,2.25
2023-05-05T16:57:25.870Z,1.98
2023-05-05T16:59:55.084Z,2.85
2023-05-05T17:02:21.761Z,2.17
2023-05-05T17:04:48.402Z,2.70
2023-05-05T17:07:15.019Z,3.00
2023-05-05T17:09:41.579Z,2.83
2023-05-05T17:12:08.210Z,2.42
2023-05-05T17:14:35.435Z,2.67
2023-05-05T17:17:02.001Z,1.80
2023-05-05T17:19:28.669Z,1.90
2023-05-05T17:21:55.307Z,1.70
2023-05-05T17:24:21.898Z,2.78
2023-05-05T17:26:48.793Z,2.30
2023-05-05T17:29:19.618Z,2.42
2023-05-05T17:31:46.815Z,1.88
2023-05-05T17:34:13.643Z,2.22
2023-05-05T17:36:40.452Z,2.50
2023-05-05T17:39:07.359Z,1.98
2023-05-05T17:41:33.994Z,3.85
2023-05-05T17:44:00.544Z,2.35
2023-05-05T17:46:27.379Z,1.95
2023-05-05T17:48:54.460Z,2.33
2023-05-05T17:51:21.237Z,2.38
2023-05-05T17:53:47.820Z,2.03
2023-05-05T17:56:14.401Z,2.15
2023-05-05T17:58:41.252Z,2.22
2023-05-05T18:01:07.965Z,2.13
2023-05-05T18:03:34.760Z,2.20
2023-05-05T18:06:02.316Z,2.30
2023-05-05T18:08:29.004Z,3.22
2023-05-05T18:10:55.586Z,2.45
2023-05-05T18:13:22.128Z,2.45
2023-05-05T18:15:48.703Z,2.38
2023-05-05T18:18:15.484Z,2.35
2023-05-05T18:20:43.524Z,2.25
2023-05-05T18:23:11.118Z,2.28
2023-05-05T18:25:37.817Z,2.42
2023-05-05T18:28:04.795Z,2.35
2023-05-05T18:30:32.696Z,1.58
2023-05-05T18:32:59.411Z,1.90
2023-05-05T18:35:26.137Z,1.98
2023-05-05T18:37:54.431Z,2.08
2023-05-05T18:40:21.962Z,2.28
2023-05-05T18:42:49.749Z,2.20
2023-05-05T18:45:16.335Z,2.33
2023-05-05T18:47:42.947Z,1.58
2023-05-05T18:50:09.989Z,2.05
2023-05-05T18:52:36.548Z,1.73
2023-05-05T18:55:03.254Z,2.10
2023-05-05T18:57:29.863Z,2.10
2023-05-05T18:59:56.494Z,1.95
2023-05-05T19:02:23.368Z,2.05
2023-05-05T19:04:49.974Z,2.65
2023-05-05T19:07:27.643Z,1.58
2023-05-05T19:10:00.778Z,1.92
2023-05-05T19:12:27.475Z,2.13
2023-05-05T19:14:54.099Z,2.67
2023-05-05T19:17:20.650Z,3.70
2023-05-05T19:19:48.341Z,2.83
2023-05-05T19:22:17.244Z,3.20
2023-05-05T19:24:43.833Z,3.17
2023-05-05T19:27:15.383Z,2.92
2023-05-05T19:29:43.079Z,2.70
2023-05-05T19:32:09.839Z,3.30
2023-05-05T19:34:36.569Z,3.35
2023-05-05T19:37:03.418Z,4.20
2023-05-05T19:39:30.058Z,4.30
2023-05-05T19:41:56.611Z,6.38
2023-05-05T19:44:23.758Z,4.97
2023-05-05T19:46:52.361Z,5.68
2023-05-05T19:49:18.925Z,5.13
2023-05-05T19:51:47.583Z,6.40
2023-05-05T19:54:14.203Z,7.68
2023-05-05T19:56:40.764Z,7.68
2023-05-05T19:59:07.413Z,5.47
2023-05-05T20:01:35.186Z,5.80
2023-05-05T20:04:03.245Z,4.90
2023-05-05T20:06:29.822Z,3.60
2023-05-05T20:08:56.393Z,4.18
2023-05-05T20:11:23.029Z,3.58
2023-05-05T20:13:50.010Z,5.18
2023-05-05T20:16:16.714Z,6.93
2023-05-05T20:18:43.840Z,6.57
2023-05-05T20:21:10.551Z,5.03
2023-05-05T20:23:37.330Z,4.70
2023-05-05T20:26:03.987Z,5.20
2023-05-05T20:28:31.663Z,4.13
2023-05-05T20:30:58.426Z,4.70
2023-05-05T20:33:25.040Z,4.82
2023-05-05T20:35:51.613Z,5.78
2023-05-05T20:38:18.255Z,4.45
2023-05-05T20:40:44.778Z,5.38
2023-05-05T20:43:11.949Z,5.20
2023-05-05T20:45:38.542Z,4.60
2023-05-05T20:48:07.227Z,4.75
2023-05-05T20:50:33.977Z,4.85
2023-05-05T20:53:00.582Z,4.72
2023-05-05T20:55:27.230Z,5.30
2023-05-05T20:57:54.056Z,4.75
2023-05-05T21:00:20.609Z,4.35
2023-05-05T21:02:47.826Z,4.13
2023-05-05T21:05:14.620Z,4.45
2023-05-05T21:07:41.169Z,4.63
2023-05-05T21:10:08.493Z,5.15
2023-05-05T21:12:35.386Z,4.80
2023-05-05T21:15:02.050Z,5.43
2023-05-05T21:17:29.086Z,4.82
2023-05-05T21:19:56.300Z,5.88
2023-05-05T21:22:22.980Z,4.97
2023-05-05T21:24:49.566Z,4.80
2023-05-05T21:27:16.171Z,5.70
2023-05-05T21:29:42.737Z,5.25
2023-05-05T21:32:11.327Z,4.38
2023-05-05T21:34:38.765Z,4.30
2023-05-05T21:37:05.994Z,5.10
2023-05-05T21:39:33.228Z,4.85
2023-05-05T21:42:00.596Z,5.07
2023-05-05T21:44:28.167Z,5.55
2023-05-05T21:46:55.213Z,5.50
2023-05-05T21:49:21.954Z,5.53
2023-05-05T21:51:48.563Z,4.65
2023-05-05T21:54:15.145Z,5.40
2023-05-05T21:56:41.849Z,4.03
2023-05-05T21:59:08.522Z,4.85
2023-05-05T22:01:35.180Z,4.45
2023-05-05T22:04:01.891Z,4.05
2023-05-05T22:06:28.627Z,4.57
2023-05-05T22:08:56.679Z,4.22
2023-05-05T22:11:23.674Z,5.60
2023-05-05T22:13:50.704Z,5.13
2023-05-05T22:16:17.661Z,4.97
2023-05-05T22:18:44.421Z,5.30
2023-05-05T22:21:11.026Z,4.03
2023-05-05T22:23:38.935Z,4.53
2023-05-05T22:26:05.500Z,5.25
2023-05-05T22:28:32.051Z,4.22
2023-05-05T22:30:58.675Z,5.03
2023-05-05T22:33:25.383Z,4.70
2023-05-05T22:35:52.033Z,5.10
2023-05-05T22:38:18.693Z,4.72
2023-05-05T22:40:45.872Z,4.93
2023-05-05T22:43:12.454Z,4.10
2023-05-05T22:45:39.043Z,4.05
2023-05-05T22:48:05.984Z,4.43
2023-05-05T22:50:32.599Z,4.30
2023-05-05T22:52:59.221Z,5.20
2023-05-05T22:55:26.732Z,5.97
2023-05-05T22:57:53.273Z,4.95
2023-05-05T23:00:19.883Z,4.75
2023-05-05T23:02:46.545Z,5.60
2023-05-05T23:05:13.161Z,5.38
2023-05-05T23:07:39.722Z,6.03
2023-05-05T23:10:06.675Z,5.53
2023-05-05T23:12:33.305Z,5.25
2023-05-05T23:15:00.046Z,5.55
2023-05-05T23:17:26.695Z,4.82
2023-05-05T23:19:53.354Z,5.35
2023-05-05T23:22:19.954Z,4.45
2023-05-05T23:24:46.528Z,5.75
2023-05-05T23:27:13.253Z,5.38
2023-05-05T23:29:39.829Z,5.75
2023-05-05T23:32:06.471Z,5.53
2023-05-05T23:34:33.122Z,5.90
2023-05-05T23:36:59.702Z,6.40
2023-05-05T23:39:26.255Z,5.68
2023-05-05T23:41:52.793Z,5.30
2023-05-05T23:44:19.390Z,5.95
2023-05-05T23:46:46.602Z,6.07
2023-05-05T23:49:13.196Z,5.75
2023-05-05T23:51:39.784Z,5.43
2023-05-05T23:54:06.394Z,5.65
2023-05-05T23:56:32.961Z,5.28
2023-05-05T23:58:59.548Z,6.53
